Time;durP1;ratioP1;P1;durP2;ratioP2;P2;SDS_P1;SDS_P2;PMS_P1;PMS_P2;Temp;Humidity;BMP_temperature;BMP_pressure;BME280_temperature;BME280_humidity;BME280_pressure;Samples;Min_cycle;Max_cycle;Signal;HPM_P1;HPM_P2
2022/10/29 00:00:44;;;;;;;20.77;12.07;;;;;;;15.31;92.60;101999.13;5030798;28;20467;-51
2022/10/29 00:03:10;;;;;;;20.13;11.57;;;;;;;15.27;92.41;102000.28;5043770;28;20033;-52
2022/10/29 00:05:35;;;;;;;21.25;11.63;;;;;;;15.25;92.50;102001.34;5032780;28;20469;-52
2022/10/29 00:08:03;;;;;;;25.02;11.80;;;;;;;15.22;92.67;101984.47;5029851;28;20124;-53
2022/10/29 00:10:29;;;;;;;25.30;12.07;;;;;;;15.29;92.41;101992.97;5050937;28;20114;-53
2022/10/29 00:12:54;;;;;;;22.02;12.20;;;;;;;15.27;92.10;101986.88;5052107;28;20484;-52
2022/10/29 00:15:20;;;;;;;19.98;11.07;;;;;;;15.27;91.12;101977.97;5040990;28;20065;-51
2022/10/29 00:17:45;;;;;;;22.10;12.30;;;;;;;15.19;91.53;101973.09;5051829;28;20032;-52
2022/10/29 00:20:13;;;;;;;20.80;11.32;;;;;;;15.23;91.55;101985.34;5058140;28;20405;-53
2022/10/29 00:22:38;;;;;;;24.77;12.18;;;;;;;15.08;91.22;101962.22;5048865;28;20033;-53
2022/10/29 00:25:04;;;;;;;23.33;11.95;;;;;;;15.17;90.90;101989.28;5039054;28;20603;-53
2022/10/29 00:27:29;;;;;;;20.25;11.95;;;;;;;15.11;91.09;101980.78;5031754;28;20033;-51
2022/10/29 00:29:55;;;;;;;20.95;11.40;;;;;;;15.14;91.17;101988.63;5030977;28;20128;-53
2022/10/29 00:32:21;;;;;;;23.65;11.95;;;;;;;15.08;91.32;101986.31;5043185;28;20051;-51
2022/10/29 00:34:46;;;;;;;24.08;12.10;;;;;;;15.02;92.12;101989.41;5038971;28;20480;-51
2022/10/29 00:37:11;;;;;;;26.38;12.00;;;;;;;15.03;91.71;101986.63;5039162;28;20028;-53
2022/10/29 00:39:37;;;;;;;18.73;11.48;;;;;;;15.02;91.69;101989.41;5041699;28;20029;-52
2022/10/29 00:42:03;;;;;;;22.83;12.63;;;;;;;14.96;92.07;101980.78;5041265;28;20657;-52
2022/10/29 00:44:37;;;;;;;23.05;12.45;;;;;;;14.93;92.29;101985.47;5042984;28;20400;-53
2022/10/29 00:47:30;;;;;;;23.77;12.20;;;;;;;15.00;91.81;102008.28;5031647;28;20115;-53
2022/10/29 00:50:00;;;;;;;18.58;11.88;;;;;;;14.98;91.61;102008.34;5032239;28;20028;-53
2022/10/29 00:52:31;;;;;;;22.35;12.40;;;;;;;14.90;91.79;102007.09;5032454;28;20025;-53
2022/10/29 00:55:01;;;;;;;26.63;11.65;;;;;;;14.92;91.60;102005.22;5043235;28;20064;-53
2022/10/29 00:57:33;;;;;;;18.52;11.45;;;;;;;14.95;91.38;102007.69;5049878;28;20028;-53
2022/10/29 01:00:00;;;;;;;19.40;11.70;;;;;;;14.98;91.31;102007.50;5045711;28;20025;-52
2022/10/29 01:02:26;;;;;;;21.73;11.65;;;;;;;14.83;91.43;101989.72;5050829;28;20029;-52
2022/10/29 01:04:52;;;;;;;18.60;12.05;;;;;;;14.83;91.47;101995.06;5051031;28;20136;-53
2022/10/29 01:07:20;;;;;;;14.73;11.27;;;;;;;14.78;91.25;101995.34;5048761;28;20033;-53
2022/10/29 01:09:45;;;;;;;20.77;12.13;;;;;;;14.81;91.13;101997.84;5046168;28;20028;-53
2022/10/29 01:12:13;;;;;;;21.88;11.20;;;;;;;14.81;91.04;101991.63;5031814;28;20037;-52
2022/10/29 01:14:58;;;;;;;22.67;11.90;;;;;;;14.77;91.09;101978.41;5041421;28;20041;-53
2022/10/29 01:17:44;;;;;;;21.05;11.82;;;;;;;14.70;90.53;101971.72;5050300;28;20503;-53
2022/10/29 01:20:12;;;;;;;18.98;11.32;;;;;;;14.57;91.03;101970.75;5034495;28;20464;-53
2022/10/29 01:22:56;;;;;;;20.63;11.20;;;;;;;14.52;90.98;101962.16;5033563;28;20065;-53
2022/10/29 01:25:30;;;;;;;25.88;12.32;;;;;;;14.52;90.64;101972.84;5041089;28;20087;-54
2022/10/29 01:28:17;;;;;;;19.13;11.80;;;;;;;14.42;91.46;101974.34;5044163;28;20033;-53
2022/10/29 01:30:49;;;;;;;19.35;12.10;;;;;;;14.45;91.79;101975.03;5037897;28;20484;-52
2022/10/29 01:33:54;;;;;;;21.05;13.15;;;;;;;14.45;91.67;101971.50;5034825;28;20036;-53
2022/10/29 01:36:37;;;;;;;13.82;9.50;;;;;;;14.43;91.75;101965.38;5041828;28;20029;-52
2022/10/29 01:39:02;;;;;;;20.63;12.13;;;;;;;14.29;90.94;101958.16;5041625;28;20437;-52
2022/10/29 01:41:48;;;;;;;20.30;11.45;;;;;;;14.34;91.16;101966.78;5035983;28;20393;-49
2022/10/29 01:44:16;;;;;;;19.75;11.80;;;;;;;14.24;90.91;101960.28;5050287;28;20191;-53
2022/10/29 01:46:50;;;;;;;19.90;11.43;;;;;;;14.19;92.36;101943.63;5054296;28;20476;-53
2022/10/29 01:49:22;;;;;;;18.08;12.02;;;;;;;14.27;91.92;101947.56;5052314;28;20079;-52
2022/10/29 01:51:49;;;;;;;22.95;13.32;;;;;;;14.27;92.20;101931.53;5041468;28;20396;-51
2022/10/29 01:54:15;;;;;;;15.82;12.35;;;;;;;14.31;91.22;101935.72;5041431;28;20053;-52
2022/10/29 01:56:51;;;;;;;22.98;12.40;;;;;;;14.26;91.54;101923.56;5047970;28;20171;-51
2022/10/29 01:59:17;;;;;;;21.08;12.65;;;;;;;14.28;91.76;101930.56;5052638;28;20070;-53
2022/10/29 02:02:18;;;;;;;21.15;13.80;;;;;;;14.34;91.96;101933.81;5048420;28;20418;-52
2022/10/29 02:04:59;;;;;;;29.15;13.45;;;;;;;14.24;91.36;101930.84;5041602;28;20082;-52
2022/10/29 02:07:33;;;;;;;19.73;12.93;;;;;;;14.28;91.47;101927.88;5048481;28;20029;-52
2022/10/29 02:10:15;;;;;;;22.55;13.45;;;;;;;14.27;91.47;101939.53;5039005;28;20072;-53
2022/10/29 02:12:46;;;;;;;19.80;12.75;;;;;;;14.19;91.64;101933.78;5039340;28;20060;-53
2022/10/29 02:15:24;;;;;;;17.30;12.25;;;;;;;14.21;91.62;101928.38;5039011;28;20049;-53
2022/10/29 02:17:49;;;;;;;18.85;12.68;;;;;;;14.14;91.14;101911.81;5036808;28;20556;-51
2022/10/29 02:20:16;;;;;;;21.63;12.68;;;;;;;14.20;91.38;101919.44;5039374;28;20116;-52
2022/10/29 02:22:42;;;;;;;22.77;12.95;;;;;;;14.12;91.62;101912.84;5035292;28;20483;-51
2022/10/29 02:25:09;;;;;;;18.08;12.25;;;;;;;14.19;91.96;101920.41;5033564;28;20087;-51
2022/10/29 02:27:35;;;;;;;23.98;12.88;;;;;;;14.10;91.80;101912.94;5053232;28;20111;-52
2022/10/29 02:30:01;;;;;;;22.40;13.20;;;;;;;14.08;92.17;101910.34;5048628;28;20112;-53
2022/10/29 02:32:27;;;;;;;19.10;11.95;;;;;;;14.04;92.52;101908.84;5048363;28;20032;-50
2022/10/29 02:34:52;;;;;;;22.23;13.07;;;;;;;14.07;92.35;101908.66;5014651;28;20044;-51
2022/10/29 02:37:18;;;;;;;21.98;12.70;;;;;;;14.14;91.53;101898.41;5032959;28;20091;-52
2022/10/29 02:39:44;;;;;;;17.63;11.80;;;;;;;14.00;91.04;101891.25;5044696;28;20047;-52
2022/10/29 02:42:09;;;;;;;18.63;13.27;;;;;;;14.09;91.43;101900.53;5034273;28;20033;-50
2022/10/29 02:44:35;;;;;;;20.92;11.77;;;;;;;14.01;91.43;101887.63;5048356;28;20082;-53
2022/10/29 02:47:00;;;;;;;19.27;12.60;;;;;;;14.03;91.78;101896.41;5031510;28;20079;-52
2022/10/29 02:49:26;;;;;;;16.67;12.00;;;;;;;14.10;91.80;101899.56;5034627;28;20120;-53
2022/10/29 02:51:51;;;;;;;20.58;12.27;;;;;;;14.02;91.55;101888.47;5034910;28;20029;-53
2022/10/29 02:54:16;;;;;;;24.10;13.20;;;;;;;13.99;92.08;101896.69;5041060;28;20057;-50
2022/10/29 02:56:42;;;;;;;15.90;11.43;;;;;;;13.90;92.22;101890.06;5052621;28;20033;-50
2022/10/29 02:59:07;;;;;;;17.42;11.75;;;;;;;13.98;92.01;101894.97;5037883;28;20091;-50
2022/10/29 03:01:35;;;;;;;21.27;13.10;;;;;;;13.88;92.20;101896.47;5033215;28;20610;-52
2022/10/29 03:04:00;;;;;;;16.02;12.43;;;;;;;13.84;92.02;101893.97;5039163;28;20033;-53
2022/10/29 03:06:25;;;;;;;18.85;11.27;;;;;;;13.91;91.75;101883.75;5033625;28;20392;-52
2022/10/29 03:08:51;;;;;;;21.92;13.07;;;;;;;13.93;91.71;101876.53;5040604;28;20054;-53
2022/10/29 03:11:16;;;;;;;18.90;12.13;;;;;;;13.88;91.65;101877.75;5050008;28;20017;-51
2022/10/29 03:13:42;;;;;;;14.10;12.05;;;;;;;13.84;92.05;101883.28;5031876;28;20037;-53
2022/10/29 03:16:08;;;;;;;20.45;11.93;;;;;;;13.82;92.07;101879.88;5051288;28;20116;-51
2022/10/29 03:18:33;;;;;;;23.15;12.85;;;;;;;13.74;92.17;101862.56;5049464;28;20067;-52
2022/10/29 03:20:59;;;;;;;18.33;11.68;;;;;;;13.76;91.58;101866.84;5044983;28;20029;-52
2022/10/29 03:23:24;;;;;;;18.65;12.57;;;;;;;13.68;92.12;101869.13;5051201;28;20037;-51
2022/10/29 03:25:53;;;;;;;24.42;12.48;;;;;;;13.70;92.05;101861.00;5048394;28;20507;-51
2022/10/29 03:28:20;;;;;;;18.85;13.05;;;;;;;13.80;91.75;101873.75;5049294;28;20365;-52
2022/10/29 03:30:46;;;;;;;15.23;11.90;;;;;;;13.68;91.99;101866.47;5036677;28;20061;-53
2022/10/29 03:33:12;;;;;;;25.55;13.05;;;;;;;13.73;91.82;101860.81;5051096;28;20102;-53
2022/10/29 03:35:37;;;;;;;18.10;12.40;;;;;;;13.77;91.73;101863.22;5048113;28;20040;-53
2022/10/29 03:38:02;;;;;;;22.00;12.57;;;;;;;13.59;92.10;101854.50;5048325;28;20398;-52
2022/10/29 03:40:28;;;;;;;17.88;11.55;;;;;;;13.68;91.31;101853.09;5047009;28;20412;-51
2022/10/29 03:42:54;;;;;;;17.58;12.40;;;;;;;13.46;92.04;101832.09;5038199;28;20388;-52
2022/10/29 03:45:19;;;;;;;18.92;12.88;;;;;;;13.60;92.32;101850.88;5041049;28;20120;-53
2022/10/29 03:47:45;;;;;;;23.98;12.90;;;;;;;13.59;93.01;101850.97;5038140;28;20032;-53
2022/10/29 03:50:10;;;;;;;18.40;11.45;;;;;;;13.59;92.63;101842.94;5047922;28;20043;-53
2022/10/29 03:52:36;;;;;;;19.77;12.13;;;;;;;13.61;92.87;101852.56;5037841;28;20029;-52
2022/10/29 03:55:02;;;;;;;20.08;12.60;;;;;;;13.66;93.22;101854.13;5031557;28;20492;-53
2022/10/29 03:57:27;;;;;;;21.88;12.77;;;;;;;13.64;93.18;101831.00;5045333;28;20613;-51
2022/10/29 03:59:53;;;;;;;23.83;12.88;;;;;;;13.67;93.75;101821.94;5032014;28;20033;-52
2022/10/29 04:02:18;;;;;;;22.42;13.02;;;;;;;13.74;93.86;101823.31;5030336;28;20033;-53
2022/10/29 04:04:46;;;;;;;20.05;12.38;;;;;;;13.69;93.24;101824.53;5049838;28;20026;-51
2022/10/29 04:07:12;;;;;;;19.05;11.18;;;;;;;13.66;93.29;101817.56;5051952;28;20033;-53
2022/10/29 04:09:37;;;;;;;16.20;11.90;;;;;;;13.63;93.24;101815.06;5040888;28;20041;-53
2022/10/29 04:12:03;;;;;;;21.73;12.63;;;;;;;13.68;93.08;101828.13;5039200;28;20498;-52
2022/10/29 04:14:29;;;;;;;21.05;12.80;;;;;;;13.67;93.12;101826.44;5037249;28;20084;-53
2022/10/29 04:16:54;;;;;;;20.50;12.32;;;;;;;13.60;93.46;101807.25;5029690;28;20038;-52
2022/10/29 04:19:20;;;;;;;17.30;13.07;;;;;;;13.66;93.78;101814.03;5035656;28;20021;-53
2022/10/29 04:21:45;;;;;;;17.95;12.07;;;;;;;13.61;93.56;101812.47;5031770;28;20044;-53
2022/10/29 04:24:11;;;;;;;20.52;12.20;;;;;;;13.65;93.68;101815.84;5018831;28;20040;-53
2022/10/29 04:26:41;;;;;;;24.55;12.00;;;;;;;13.63;93.93;101813.25;5038047;28;20491;-52
2022/10/29 04:29:07;;;;;;;19.05;12.65;;;;;;;13.64;94.26;101814.09;5032534;28;20025;-53
2022/10/29 04:31:32;;;;;;;20.67;13.07;;;;;;;13.63;94.21;101804.38;5031431;28;20084;-52
2022/10/29 04:33:58;;;;;;;15.73;11.95;;;;;;;13.58;94.04;101809.13;5031998;28;20467;-53
2022/10/29 04:36:24;;;;;;;21.35;12.38;;;;;;;13.63;94.38;101801.72;5037298;28;20033;-53
2022/10/29 04:38:49;;;;;;;17.10;12.10;;;;;;;13.61;94.72;101796.44;5034598;28;20554;-54
2022/10/29 04:41:16;;;;;;;19.30;12.35;;;;;;;13.58;94.95;101799.28;5049491;28;20098;-53
2022/10/29 04:43:43;;;;;;;20.48;12.15;;;;;;;13.60;94.91;101799.22;5045432;28;20486;-54
2022/10/29 04:46:09;;;;;;;20.77;12.88;;;;;;;13.56;94.72;101803.91;5040012;28;20519;-52
2022/10/29 04:48:34;;;;;;;19.75;13.05;;;;;;;13.51;95.22;101808.66;5037074;28;20079;-53
2022/10/29 04:51:00;;;;;;;20.88;12.68;;;;;;;13.58;95.35;101803.78;5030513;28;20029;-53
2022/10/29 04:53:25;;;;;;;20.50;12.55;;;;;;;13.56;94.96;101797.66;5030299;28;20108;-53
2022/10/29 04:55:50;;;;;;;20.80;13.20;;;;;;;13.58;95.08;101809.13;5033724;28;20101;-52
2022/10/29 04:58:18;;;;;;;26.00;14.70;;;;;;;13.59;95.31;101805.53;5050407;28;20484;-53
2022/10/29 05:00:46;;;;;;;17.88;13.45;;;;;;;13.58;95.90;101801.97;5040998;28;20029;-53
2022/10/29 05:03:11;;;;;;;25.80;14.23;;;;;;;13.55;96.43;101791.47;5035255;28;20033;-53
2022/10/29 05:05:38;;;;;;;21.88;13.85;;;;;;;13.37;95.85;101766.72;5035537;28;20469;-51
2022/10/29 05:08:07;;;;;;;17.88;12.65;;;;;;;13.54;96.21;101803.13;5049996;28;20025;-52
2022/10/29 05:10:35;;;;;;;21.17;12.85;;;;;;;13.48;95.96;101787.47;5045144;28;20460;-53
2022/10/29 05:13:10;;;;;;;22.85;13.20;;;;;;;13.54;95.87;101799.59;5053050;28;20047;-53
2022/10/29 05:15:36;;;;;;;19.33;12.55;;;;;;;13.49;96.11;101794.50;5039206;28;20045;-52
2022/10/29 05:18:02;;;;;;;23.73;14.57;;;;;;;13.57;96.38;101788.72;5035863;28;20032;-52
2022/10/29 05:20:31;;;;;;;21.20;13.15;;;;;;;13.61;95.78;101785.75;5047473;28;20029;-52
2022/10/29 05:23:04;;;;;;;23.25;14.15;;;;;;;13.61;95.84;101790.25;5035515;28;20029;-52
2022/10/29 05:25:32;;;;;;;22.77;13.75;;;;;;;13.66;95.88;101782.81;5053840;28;20017;-53
2022/10/29 05:28:11;;;;;;;21.65;13.30;;;;;;;13.63;95.69;101789.19;5043881;28;20028;-53
2022/10/29 05:30:38;;;;;;;24.27;13.57;;;;;;;13.66;95.69;101781.94;5048464;28;20029;-52
2022/10/29 05:33:10;;;;;;;16.27;12.18;;;;;;;13.66;95.55;101780.13;5035158;28;20529;-52
2022/10/29 05:35:36;;;;;;;20.27;14.35;;;;;;;13.63;95.86;101777.66;5038012;28;20033;-52
2022/10/29 05:38:02;;;;;;;22.25;14.07;;;;;;;13.58;96.38;101775.25;5045568;28;20110;-52
2022/10/29 05:40:28;;;;;;;18.08;13.18;;;;;;;13.61;96.62;101774.19;5053034;28;20040;-51
2022/10/29 05:42:53;;;;;;;23.08;14.15;;;;;;;13.56;97.09;101766.47;5054366;28;20033;-52
2022/10/29 05:45:19;;;;;;;20.33;14.00;;;;;;;13.65;96.94;101773.06;5053632;28;20051;-51
2022/10/29 05:47:45;;;;;;;21.67;13.15;;;;;;;13.54;96.86;101743.47;5050452;28;20444;-53
2022/10/29 05:50:13;;;;;;;21.33;14.63;;;;;;;13.61;97.65;101753.66;5052291;28;20103;-52
2022/10/29 05:52:42;;;;;;;20.57;14.43;;;;;;;13.66;97.27;101750.72;5047646;28;20088;-53
2022/10/29 05:55:09;;;;;;;24.60;14.35;;;;;;;13.61;97.82;101756.34;5043371;28;20378;-52
2022/10/29 05:57:34;;;;;;;28.05;15.25;;;;;;;13.64;97.50;101755.28;5045650;28;20047;-52
2022/10/29 05:59:59;;;;;;;22.30;15.00;;;;;;;13.64;97.25;101755.28;5034292;28;20120;-51
2022/10/29 06:02:25;;;;;;;25.80;14.75;;;;;;;13.66;97.70;101750.72;5032935;28;20037;-52
2022/10/29 06:04:50;;;;;;;29.45;16.15;;;;;;;13.62;98.13;101744.72;5033153;28;20037;-52
2022/10/29 06:07:17;;;;;;;27.25;15.85;;;;;;;13.67;98.20;101749.75;5037850;28;20036;-53
2022/10/29 06:09:42;;;;;;;25.15;16.02;;;;;;;13.62;98.63;101751.88;5044731;28;20033;-53
2022/10/29 06:12:08;;;;;;;25.13;15.75;;;;;;;13.71;98.83;101750.47;5037234;28;20071;-52
2022/10/29 06:14:33;;;;;;;22.73;15.88;;;;;;;13.71;99.01;101763.81;5052882;28;20515;-53
2022/10/29 06:17:01;;;;;;;26.13;16.08;;;;;;;13.76;99.10;101789.28;5054249;28;20029;-49
2022/10/29 06:19:27;;;;;;;26.55;15.85;;;;;;;13.78;99.16;101774.03;5054121;28;20055;-51
2022/10/29 06:21:54;;;;;;;25.92;16.15;;;;;;;13.75;99.30;101771.53;5046212;28;20072;-53
2022/10/29 06:24:20;;;;;;;29.25;16.40;;;;;;;13.78;100.00;101773.16;5032475;28;20034;-53
2022/10/29 06:26:45;;;;;;;29.13;15.95;;;;;;;13.82;100.00;101775.56;5034118;28;20053;-53
2022/10/29 06:29:11;;;;;;;27.40;15.68;;;;;;;13.86;100.00;101777.09;5029833;28;20041;-52
2022/10/29 06:31:36;;;;;;;20.35;15.00;;;;;;;13.87;99.92;101775.28;5051047;28;20041;-53
2022/10/29 06:34:01;;;;;;;26.98;15.93;;;;;;;13.85;99.72;101767.38;5053866;28;20032;-53
2022/10/29 06:36:28;;;;;;;33.85;16.75;;;;;;;13.87;100.00;101775.28;5053732;28;20411;-51
2022/10/29 06:38:54;;;;;;;32.20;17.15;;;;;;;13.84;100.00;101770.13;5053710;28;20051;-53
2022/10/29 06:41:24;;;;;;;27.17;18.05;;;;;;;13.65;100.00;101743.66;5053213;28;20456;-54
2022/10/29 06:43:49;;;;;;;25.25;16.20;;;;;;;13.74;100.00;101774.31;5037495;28;20033;-53
2022/10/29 06:46:14;;;;;;;26.10;16.23;;;;;;;13.73;100.00;101769.91;5033602;28;20037;-53
2022/10/29 06:48:40;;;;;;;30.02;16.73;;;;;;;13.77;100.00;101774.13;5033901;28;20080;-52
2022/10/29 06:51:05;;;;;;;32.20;17.30;;;;;;;13.77;99.64;101783.00;4999128;28;20034;-52
2022/10/29 06:53:31;;;;;;;32.65;17.52;;;;;;;13.74;100.00;101775.19;5025182;28;20048;-53
2022/10/29 06:55:57;;;;;;;27.83;16.55;;;;;;;13.75;100.00;101779.56;5051618;28;20029;-53
2022/10/29 06:58:25;;;;;;;29.67;18.13;;;;;;;13.75;100.00;101790.25;5039140;28;20083;-51
2022/10/29 07:00:51;;;;;;;27.38;16.23;;;;;;;13.81;100.00;101797.03;5040575;28;20041;-53
2022/10/29 07:03:19;;;;;;;24.63;16.15;;;;;;;13.80;100.00;101798.88;5034696;28;20080;-51
2022/10/29 07:05:45;;;;;;;26.75;15.80;;;;;;;13.90;100.00;101787.59;5032872;28;20030;-53
2022/10/29 07:08:10;;;;;;;30.80;16.95;;;;;;;13.96;100.00;101784.53;5032278;28;20412;-53
2022/10/29 07:10:39;;;;;;;28.67;15.75;;;;;;;13.95;100.00;101775.66;5031541;28;20034;-52
2022/10/29 07:13:05;;;;;;;32.15;16.05;;;;;;;14.06;100.00;101772.31;5044656;28;20041;-53
2022/10/29 07:15:30;;;;;;;24.08;16.05;;;;;;;14.04;100.00;101774.22;5052235;28;20037;-53
2022/10/29 07:18:04;;;;;;;32.40;17.42;;;;;;;14.13;100.00;101775.47;5052526;28;20029;-52
2022/10/29 07:20:35;;;;;;;27.85;15.95;;;;;;;14.16;100.00;101767.25;5050750;28;20075;-53
2022/10/29 07:23:00;;;;;;;32.42;16.30;;;;;;;14.17;100.00;101761.78;5042232;28;20465;-54
2022/10/29 07:25:27;;;;;;;30.80;15.48;;;;;;;14.19;100.00;101759.03;5014858;28;20033;-52
2022/10/29 07:27:53;;;;;;;28.90;15.73;;;;;;;14.20;100.00;101748.22;5033018;28;20033;-52
2022/10/29 07:30:19;;;;;;;25.27;16.50;;;;;;;14.27;100.00;101746.03;5031511;28;20385;-51
2022/10/29 07:32:44;;;;;;;27.98;16.15;;;;;;;14.27;100.00;101751.38;5035613;28;20097;-53
2022/10/29 07:35:09;;;;;;;28.30;16.60;;;;;;;14.35;100.00;101750.84;5043463;28;20047;-53
2022/10/29 07:37:35;;;;;;;27.80;15.73;;;;;;;14.38;100.00;101747.97;5052835;28;20033;-53
2022/10/29 07:40:01;;;;;;;24.98;15.80;;;;;;;14.35;100.00;101743.69;5050960;28;20036;-53
2022/10/29 07:42:26;;;;;;;30.98;14.75;;;;;;;14.35;100.00;101750.84;5045870;28;20056;-54
2022/10/29 07:44:52;;;;;;;25.35;15.27;;;;;;;14.40;100.00;101754.97;5029770;28;20065;-53
2022/10/29 07:47:19;;;;;;;26.60;15.15;;;;;;;14.41;100.00;101754.03;5031450;28;20104;-53
2022/10/29 07:49:45;;;;;;;29.30;15.70;;;;;;;14.45;100.00;101746.66;5030783;28;20436;-53
2022/10/29 07:52:10;;;;;;;23.73;15.07;;;;;;;14.47;100.00;101750.94;5047912;28;20040;-53
2022/10/29 07:54:36;;;;;;;24.08;14.90;;;;;;;14.52;100.00;101751.50;5031854;28;20037;-53
2022/10/29 07:57:01;;;;;;;25.52;15.38;;;;;;;14.53;100.00;101763.97;5050046;28;20468;-54
2022/10/29 07:59:26;;;;;;;27.65;15.73;;;;;;;14.53;100.00;101755.06;5038201;28;20087;-53
2022/10/29 08:01:52;;;;;;;29.40;13.93;;;;;;;14.61;100.00;101758.09;5032061;28;20116;-53
2022/10/29 08:04:17;;;;;;;22.50;14.75;;;;;;;14.72;100.00;101752.88;5031772;28;20034;-52
2022/10/29 08:06:43;;;;;;;23.80;15.13;;;;;;;14.79;100.00;101756.00;5030667;28;20033;-52
2022/10/29 08:09:10;;;;;;;27.77;14.75;;;;;;;14.88;100.00;101757.22;5051194;28;20435;-53
2022/10/29 08:11:35;;;;;;;26.52;14.48;;;;;;;14.96;100.00;101741.50;5030121;28;20108;-52
2022/10/29 08:14:00;;;;;;;24.58;14.38;;;;;;;15.04;100.00;101747.22;5030765;28;20481;-53
2022/10/29 08:16:28;;;;;;;23.05;14.48;;;;;;;14.98;100.00;101737.75;5047092;28;20041;-52
2022/10/29 08:18:56;;;;;;;20.88;13.60;;;;;;;15.12;100.00;101736.00;5042324;28;20040;-52
2022/10/29 08:21:22;;;;;;;21.33;12.57;;;;;;;15.14;100.00;101740.25;5050257;28;20037;-52
2022/10/29 08:23:48;;;;;;;27.40;14.20;;;;;;;15.24;100.00;101740.50;5050604;28;20036;-53
2022/10/29 08:26:14;;;;;;;23.45;13.60;;;;;;;15.20;100.00;101731.78;5050022;28;20488;-52
2022/10/29 08:28:41;;;;;;;23.02;14.13;;;;;;;15.34;100.00;101741.56;5050095;28;20100;-53
2022/10/29 08:31:07;;;;;;;22.13;13.85;;;;;;;15.35;100.00;101739.75;5049383;28;20044;-52
2022/10/29 08:33:32;;;;;;;22.60;13.77;;;;;;;15.41;100.00;101740.19;5031671;28;20025;-51
2022/10/29 08:35:58;;;;;;;21.77;13.32;;;;;;;15.51;100.00;101744.94;5014033;28;20034;-52
2022/10/29 08:38:23;;;;;;;26.30;12.43;;;;;;;15.58;98.73;101739.00;5031879;28;20025;-53
2022/10/29 08:41:22;;;;;;;26.00;12.10;;;;;;;15.73;98.33;101745.16;5029812;28;20029;-53
2022/10/29 08:44:00;;;;;;;23.73;12.82;;;;;;;15.84;96.98;101747.09;5030807;28;20457;-53
2022/10/29 08:47:07;;;;;;;19.33;11.70;;;;;;;15.92;96.47;101736.66;5031471;28;20049;-52
2022/10/29 08:49:41;;;;;;;24.02;11.73;;;;;;;16.02;97.35;101731.50;5032882;28;20091;-53
2022/10/29 08:52:15;;;;;;;19.98;11.50;;;;;;;16.04;95.76;101738.47;5030616;28;20029;-52
2022/10/29 08:54:49;;;;;;;21.23;11.63;;;;;;;16.06;96.64;101738.34;5029838;28;20033;-53
2022/10/29 08:57:18;;;;;;;18.20;10.35;;;;;;;16.01;94.80;101724.44;5039961;28;20104;-52
2022/10/29 09:00:17;;;;;;;27.73;11.10;;;;;;;16.11;95.10;101729.00;5031403;28;20041;-53
2022/10/29 09:02:43;;;;;;;17.77;9.95;;;;;;;16.13;98.51;101731.59;5029070;28;20444;-52
2022/10/29 09:05:17;;;;;;;17.65;10.15;;;;;;;16.15;97.68;101720.72;5029898;28;20029;-52
2022/10/29 09:08:01;;;;;;;19.00;10.38;;;;;;;16.28;97.45;101726.94;5033409;28;20021;-52
2022/10/29 09:10:43;;;;;;;20.48;10.45;;;;;;;16.38;97.49;101724.41;5048896;28;20021;-52
2022/10/29 09:13:43;;;;;;;21.20;10.57;;;;;;;16.45;94.99;101721.19;5031085;28;20029;-50
2022/10/29 09:16:42;;;;;;;19.33;10.05;;;;;;;16.51;95.92;101728.78;5039634;28;20515;-53
2022/10/29 09:19:41;;;;;;;17.48;9.15;;;;;;;16.63;94.11;101728.84;5031237;28;20030;-53
2022/10/29 09:22:22;;;;;;;20.92;9.43;;;;;;;16.67;92.37;101731.16;5031207;28;20052;-53
2022/10/29 09:25:17;;;;;;;22.83;9.05;;;;;;;16.71;91.65;101731.81;5030676;28;20084;-52
2022/10/29 09:28:06;;;;;;;15.80;8.43;;;;;;;16.76;90.48;101735.03;5031129;28;20108;-53
2022/10/29 09:30:59;;;;;;;22.40;8.18;;;;;;;16.81;90.28;101719.44;5031079;28;20486;-53
2022/10/29 09:33:25;;;;;;;13.27;8.52;;;;;;;16.77;93.56;101712.59;5030631;28;20049;-52
2022/10/29 09:35:53;;;;;;;15.80;7.97;;;;;;;16.82;89.34;101728.34;5032036;28;20034;-52
2022/10/29 09:38:37;;;;;;;19.77;8.40;;;;;;;16.83;90.43;101717.50;5031189;28;20495;-52
2022/10/29 09:41:04;;;;;;;14.52;8.27;;;;;;;16.79;91.61;101716.00;5030517;28;20534;-51
2022/10/29 09:43:44;;;;;;;20.80;8.40;;;;;;;16.87;89.74;101721.66;5033911;28;20033;-52
2022/10/29 09:46:33;;;;;;;14.07;8.18;;;;;;;16.91;92.35;101707.03;5035392;28;20548;-52
2022/10/29 09:49:04;;;;;;;;;;;;;;;17.02;91.43;101707.03;5035200;28;20041;-52
2022/10/29 09:51:48;;;;;;;21.45;7.63;;;;;;;17.21;87.71;101702.97;5042338;28;19920;-52
2022/10/29 09:54:15;;;;;;;18.48;7.68;;;;;;;17.39;88.37;101692.59;5047236;28;20495;-52
2022/10/29 09:56:42;;;;;;;20.58;7.60;;;;;;;17.55;85.51;101686.84;5054322;28;20025;-53
2022/10/29 09:59:28;;;;;;;21.95;7.82;;;;;;;17.74;85.46;101699.72;5054493;28;20060;-53
2022/10/29 10:01:56;;;;;;;22.90;7.28;;;;;;;18.05;83.16;101687.34;5054049;28;20025;-52
2022/10/29 10:04:25;;;;;;;18.73;7.78;;;;;;;18.41;81.27;101699.63;5047036;28;20033;-53
2022/10/29 10:07:06;;;;;;;19.13;7.67;;;;;;;18.60;80.84;101693.56;5048636;28;20040;-53
2022/10/29 10:09:51;;;;;;;19.73;6.65;;;;;;;18.68;81.24;101690.22;5053474;28;20282;-53
2022/10/29 10:12:18;;;;;;;18.92;6.70;;;;;;;18.63;78.82;101679.84;5053357;28;20090;-50
2022/10/29 10:14:45;;;;;;;17.40;6.43;;;;;;;18.63;78.83;101687.94;5051739;28;20056;-52
2022/10/29 10:17:10;;;;;;;16.15;6.53;;;;;;;18.68;78.01;101691.09;5041197;28;20033;-53
2022/10/29 10:19:42;;;;;;;16.88;6.72;;;;;;;18.91;77.71;101682.94;5034451;28;20057;-53
2022/10/29 10:22:17;;;;;;;18.63;6.70;;;;;;;19.26;77.76;101696.09;5044256;28;20026;-53
2022/10/29 10:24:44;;;;;;;15.52;6.53;;;;;;;19.39;76.04;101688.66;5047066;28;20029;-54
2022/10/29 10:27:16;;;;;;;16.35;6.28;;;;;;;19.44;77.74;101678.31;5041994;28;20037;-53
2022/10/29 10:29:41;;;;;;;18.50;6.32;;;;;;;19.82;73.19;101690.28;5048982;28;20437;-53
2022/10/29 10:32:07;;;;;;;12.98;5.60;;;;;;;20.23;73.66;101687.56;5034186;28;20037;-54
2022/10/29 10:34:33;;;;;;;14.93;5.55;;;;;;;20.40;75.54;101681.47;5033780;28;20029;-53
2022/10/29 10:37:04;;;;;;;15.18;5.80;;;;;;;21.00;70.56;101686.78;5040914;28;20100;-54
2022/10/29 10:39:35;;;;;;;13.52;5.35;;;;;;;21.27;67.45;101686.03;5053155;28;20029;-54
2022/10/29 10:42:04;;;;;;;15.02;4.63;;;;;;;21.59;69.76;101679.41;5040328;28;20084;-54
2022/10/29 10:44:29;;;;;;;;;;;;;;;22.00;69.91;101672.63;5033813;28;20048;-53
2022/10/29 10:47:03;;;;;;;13.23;5.20;;;;;;;21.86;63.78;101660.47;5033692;28;19960;-54
2022/10/29 10:49:38;;;;;;;16.98;5.47;;;;;;;22.06;64.20;101672.06;5033628;28;20448;-54
2022/10/29 10:52:12;;;;;;;16.55;5.18;;;;;;;22.47;60.79;101663.53;5033320;28;20026;-54
2022/10/29 10:54:43;;;;;;;12.52;4.82;;;;;;;22.68;59.05;101673.06;5031321;28;20029;-54
2022/10/29 10:57:11;;;;;;;15.00;4.75;;;;;;;22.84;58.81;101656.06;5039049;28;20025;-54
2022/10/29 10:59:39;;;;;;;18.08;5.03;;;;;;;23.12;57.41;101662.25;5049779;28;20078;-54
2022/10/29 11:02:21;;;;;;;12.23;4.72;;;;;;;23.32;57.22;101662.03;5048001;28;20057;-54
2022/10/29 11:04:52;;;;;;;17.60;4.78;;;;;;;23.45;55.74;101673.31;5033098;28;20036;-54
2022/10/29 11:07:18;;;;;;;14.90;4.35;;;;;;;23.85;54.78;101662.84;5049540;28;20025;-55
2022/10/29 11:09:47;;;;;;;14.00;4.40;;;;;;;24.05;54.91;101661.53;5041807;28;20021;-53
2022/10/29 11:12:46;;;;;;;18.83;4.85;;;;;;;24.49;54.49;101661.34;5032853;28;20036;-54
2022/10/29 11:15:29;;;;;;;12.43;4.35;;;;;;;24.71;55.21;101665.28;5043961;28;20041;-54
2022/10/29 11:18:09;;;;;;;17.17;4.82;;;;;;;24.83;52.80;101666.63;5053263;28;20503;-55
2022/10/29 11:20:42;;;;;;;18.05;5.60;;;;;;;24.93;51.72;101656.41;5046180;28;20041;-54